Time;durP1;ratioP1;P1;durP2;ratioP2;P2;SDS_P1;SDS_P2;PMS_P1;PMS_P2;Temp;Humidity;BMP_temperature;BMP_pressure;BME280_temperature;BME280_humidity;BME280_pressure;Samples;Min_cycle;Max_cycle;Signal;HPM_P1;HPM_P2
2022/10/19 00:01:38;;;;;;;7.07;5.60;;;;;;;;;;4999519;28;20023;-82
2022/10/19 00:04:04;;;;;;;7.90;5.78;;;;;;;;;;5003197;28;20041;-83
2022/10/19 00:06:34;;;;;;;8.27;6.13;;;;;;;;;;4982457;28;20427;-83
2022/10/19 00:09:00;;;;;;;6.70;5.63;;;;;;;;;;4981095;28;20026;-84
2022/10/19 00:11:27;;;;;;;5.53;4.93;;;;;;;;;;4996792;28;20011;-84
2022/10/19 00:13:54;;;;;;;5.15;4.53;;;;;;;;;;4998968;28;20030;-84
2022/10/19 00:16:20;;;;;;;5.13;4.60;;;;;;;;;;5000846;28;20022;-84
2022/10/19 00:18:46;;;;;;;5.50;4.90;;;;;;;;;;5000850;28;20030;-82
2022/10/19 00:21:14;;;;;;;6.15;5.43;;;;;;;;;;5001342;28;20383;-82
2022/10/19 00:23:40;;;;;;;7.22;5.80;;;;;;;;;;5001554;28;20050;-83
2022/10/19 00:26:06;;;;;;;8.98;5.80;;;;;;;;;;5000865;28;20030;-83
2022/10/19 00:28:32;;;;;;;7.70;6.43;;;;;;;;;;5001716;28;20041;-83
2022/10/19 00:31:05;;;;;;;8.48;6.20;;;;;;;;;;5000504;28;20022;-82
2022/10/19 00:33:32;;;;;;;6.13;5.22;;;;;;;;;;5001349;28;20026;-83
2022/10/19 00:35:58;;;;;;;6.03;4.82;;;;;;;;;;5001415;28;20066;-83
2022/10/19 00:38:24;;;;;;;7.93;4.55;;;;;;;;;;4999063;28;20038;-83
2022/10/19 00:40:50;;;;;;;7.43;5.28;;;;;;;;;;5000355;28;20448;-83
2022/10/19 00:43:21;;;;;;;7.20;4.75;;;;;;;;;;4996350;28;20073;-82
2022/10/19 00:45:47;;;;;;;6.30;4.90;;;;;;;;;;4990253;28;20034;-83
2022/10/19 00:48:16;;;;;;;11.32;7.30;;;;;;;;;;5008306;28;20122;-83
2022/10/19 00:50:43;;;;;;;7.18;5.60;;;;;;;;;;4999980;28;20040;-83
2022/10/19 00:53:09;;;;;;;6.45;5.50;;;;;;;;;;5000386;28;20022;-83
2022/10/19 00:55:36;;;;;;;6.43;4.93;;;;;;;;;;4980520;28;20022;-82
2022/10/19 00:58:03;;;;;;;5.78;4.65;;;;;;;;;;4980212;28;20472;-82
2022/10/19 01:00:29;;;;;;;4.93;4.43;;;;;;;;;;4995969;28;20031;-83
2022/10/19 01:02:57;;;;;;;5.45;4.95;;;;;;;;;;4999776;28;20487;-82
2022/10/19 01:05:23;;;;;;;5.55;5.03;;;;;;;;;;4990079;28;20022;-82
2022/10/19 01:07:49;;;;;;;7.18;5.28;;;;;;;;;;4999255;28;20030;-81
2022/10/19 01:10:15;;;;;;;7.55;6.55;;;;;;;;;;4998801;28;20042;-83
2022/10/19 01:12:41;;;;;;;10.23;7.80;;;;;;;;;;4998907;28;20077;-82
2022/10/19 01:15:26;;;;;;;9.13;7.35;;;;;;;;;;4999325;28;20045;-82
2022/10/19 01:17:52;;;;;;;12.30;8.18;;;;;;;;;;4981610;28;20034;-83
2022/10/19 01:20:25;;;;;;;14.32;8.75;;;;;;;;;;4999226;28;20348;-81
2022/10/19 01:22:51;;;;;;;;;;;;;;;;;;5000504;28;20038;-83
2022/10/19 01:25:45;;;;;;;8.80;7.70;;;;;;;;;;4998423;28;19906;-83
2022/10/19 01:28:36;;;;;;;9.63;7.57;;;;;;;;;;4996960;28;20038;-83
2022/10/19 01:31:07;;;;;;;9.45;6.45;;;;;;;;;;4982393;28;20088;-81
2022/10/19 01:33:47;;;;;;;8.60;7.70;;;;;;;;;;4997775;28;20113;-83
2022/10/19 01:36:13;;;;;;;9.75;7.95;;;;;;;;;;4979217;28;20034;-81
2022/10/19 01:38:51;;;;;;;7.88;7.07;;;;;;;;;;4982491;28;20460;-83
2022/10/19 01:41:19;;;;;;;9.25;6.85;;;;;;;;;;4989487;28;20092;-83
2022/10/19 01:44:14;;;;;;;7.50;6.45;;;;;;;;;;4987527;28;20487;-83
2022/10/19 01:46:43;;;;;;;10.95;8.38;;;;;;;;;;4986501;28;20102;-83
2022/10/19 01:49:12;;;;;;;9.57;7.82;;;;;;;;;;4979053;28;20065;-82
2022/10/19 01:51:42;;;;;;;11.18;8.30;;;;;;;;;;4989300;28;20022;-83
2022/10/19 01:54:11;;;;;;;12.25;8.50;;;;;;;;;;4998593;28;20038;-83
2022/10/19 01:56:37;;;;;;;14.13;8.90;;;;;;;;;;4998412;28;20038;-83
2022/10/19 01:59:05;;;;;;;9.95;8.90;;;;;;;;;;4998833;28;20321;-83
2022/10/19 02:01:34;;;;;;;12.40;10.02;;;;;;;;;;4983952;28;20098;-83
2022/10/19 02:04:00;;;;;;;15.32;11.85;;;;;;;;;;4982511;28;20153;-83
2022/10/19 02:06:27;;;;;;;11.38;9.52;;;;;;;;;;4996858;28;20042;-82
2022/10/19 02:08:53;;;;;;;11.90;9.20;;;;;;;;;;5013211;28;20038;-82
2022/10/19 02:11:20;;;;;;;9.98;8.48;;;;;;;;;;4999624;28;20090;-83
2022/10/19 02:13:49;;;;;;;10.93;9.30;;;;;;;;;;4998676;28;20109;-84
2022/10/19 02:16:35;;;;;;;9.85;8.68;;;;;;;;;;4996376;28;20046;-82
2022/10/19 02:19:02;;;;;;;11.85;9.55;;;;;;;;;;5003085;28;20038;-81
2022/10/19 02:21:28;;;;;;;14.23;9.80;;;;;;;;;;4995114;28;20019;-84
2022/10/19 02:23:54;;;;;;;13.05;9.48;;;;;;;;;;4998216;28;20023;-84
2022/10/19 02:26:21;;;;;;;14.35;10.50;;;;;;;;;;4997974;28;20030;-84
2022/10/19 02:28:48;;;;;;;12.55;10.73;;;;;;;;;;4980768;28;20496;-83
2022/10/19 02:31:14;;;;;;;11.18;9.80;;;;;;;;;;4998161;28;20395;-82
2022/10/19 02:33:40;;;;;;;10.38;8.40;;;;;;;;;;5013502;28;20022;-82
2022/10/19 02:36:06;;;;;;;8.80;7.47;;;;;;;;;;5000771;28;20447;-83
2022/10/19 02:38:32;;;;;;;10.00;8.65;;;;;;;;;;4997518;28;20046;-83
2022/10/19 02:40:58;;;;;;;10.38;9.32;;;;;;;;;;5004238;28;20074;-83
2022/10/19 02:43:26;;;;;;;9.82;8.07;;;;;;;;;;4998284;28;20033;-82
2022/10/19 02:46:12;;;;;;;9.60;8.23;;;;;;;;;;5004546;28;20018;-81
2022/10/19 02:48:39;;;;;;;10.98;9.02;;;;;;;;;;5002294;28;20030;-83
2022/10/19 02:51:05;;;;;;;10.43;9.13;;;;;;;;;;5002082;28;20105;-82
2022/10/19 02:53:31;;;;;;;10.15;8.88;;;;;;;;;;5002779;28;20027;-83
2022/10/19 02:55:57;;;;;;;9.07;8.18;;;;;;;;;;5011649;28;20038;-82
2022/10/19 02:58:23;;;;;;;10.02;8.88;;;;;;;;;;5004487;28;20050;-82
2022/10/19 03:00:49;;;;;;;18.13;14.10;;;;;;;;;;4975607;28;20121;-82
2022/10/19 03:03:16;;;;;;;16.48;12.73;;;;;;;;;;5005294;28;20030;-82
2022/10/19 03:05:42;;;;;;;16.02;11.85;;;;;;;;;;5004947;28;20371;-82
2022/10/19 03:08:08;;;;;;;14.73;11.35;;;;;;;;;;5002567;28;20027;-83
2022/10/19 03:10:34;;;;;;;18.77;13.93;;;;;;;;;;4986413;28;20061;-82
2022/10/19 03:13:00;;;;;;;18.23;13.65;;;;;;;;;;4986904;28;20035;-82
2022/10/19 03:15:29;;;;;;;12.18;10.88;;;;;;;;;;5004000;28;20072;-82
2022/10/19 03:17:55;;;;;;;13.57;12.07;;;;;;;;;;5003995;28;20026;-83
2022/10/19 03:20:22;;;;;;;13.05;10.65;;;;;;;;;;5000422;28;20038;-81
2022/10/19 03:22:48;;;;;;;12.98;11.63;;;;;;;;;;5018870;28;20074;-83
2022/10/19 03:25:14;;;;;;;15.98;12.25;;;;;;;;;;5002322;28;20014;-82
2022/10/19 03:27:40;;;;;;;14.15;11.65;;;;;;;;;;5017638;28;20086;-83
2022/10/19 03:30:06;;;;;;;16.58;12.38;;;;;;;;;;5005432;28;20018;-83
2022/10/19 03:32:32;;;;;;;13.77;12.32;;;;;;;;;;5004853;28;20030;-83
2022/10/19 03:34:58;;;;;;;11.00;9.50;;;;;;;;;;5005179;28;20026;-84
2022/10/19 03:37:24;;;;;;;11.70;9.57;;;;;;;;;;5002462;28;20466;-82
2022/10/19 03:39:50;;;;;;;15.75;13.48;;;;;;;;;;5003062;28;20035;-81
2022/10/19 03:42:17;;;;;;;14.43;12.95;;;;;;;;;;5004550;28;20053;-83
2022/10/19 03:44:43;;;;;;;17.83;12.63;;;;;;;;;;5003252;28;20030;-82
2022/10/19 03:47:09;;;;;;;15.00;11.60;;;;;;;;;;5002698;28;20031;-82
2022/10/19 03:49:35;;;;;;;14.63;11.45;;;;;;;;;;5010357;28;20023;-82
2022/10/19 03:52:01;;;;;;;12.32;11.07;;;;;;;;;;4999233;28;20106;-82
2022/10/19 03:54:27;;;;;;;10.43;9.27;;;;;;;;;;4999530;28;20038;-82
2022/10/19 03:56:53;;;;;;;8.40;7.60;;;;;;;;;;5017101;28;20058;-81
2022/10/19 03:59:19;;;;;;;9.23;8.32;;;;;;;;;;5016858;28;20023;-80
2022/10/19 04:01:45;;;;;;;10.40;8.55;;;;;;;;;;5013219;28;20031;-83
2022/10/19 04:04:13;;;;;;;9.43;8.52;;;;;;;;;;5017251;28;20022;-82
2022/10/19 04:06:41;;;;;;;10.55;8.95;;;;;;;;;;5017559;28;20034;-83
2022/10/19 04:09:07;;;;;;;11.98;10.45;;;;;;;;;;5017803;28;20041;-84
2022/10/19 04:11:34;;;;;;;14.98;11.57;;;;;;;;;;5016932;28;20023;-83
2022/10/19 04:14:00;;;;;;;11.18;9.07;;;;;;;;;;5017842;28;20022;-83
2022/10/19 04:16:28;;;;;;;13.23;11.77;;;;;;;;;;5017302;28;20045;-82
2022/10/19 04:18:54;;;;;;;11.23;10.02;;;;;;;;;;5017241;28;20231;-82
2022/10/19 04:21:23;;;;;;;11.90;10.65;;;;;;;;;;5016821;28;20022;-82
2022/10/19 04:23:51;;;;;;;12.82;10.48;;;;;;;;;;5017019;28;20093;-83
2022/10/19 04:26:17;;;;;;;16.13;11.98;;;;;;;;;;5006070;28;20130;-83
2022/10/19 04:28:43;;;;;;;12.10;10.85;;;;;;;;;;5004621;28;20026;-83
2022/10/19 04:31:10;;;;;;;13.73;11.48;;;;;;;;;;5006693;28;20022;-83
2022/10/19 04:33:36;;;;;;;13.43;11.55;;;;;;;;;;5001329;28;20022;-83
2022/10/19 04:36:03;;;;;;;13.50;11.50;;;;;;;;;;5003364;28;20026;-82
2022/10/19 04:38:30;;;;;;;16.13;12.60;;;;;;;;;;5003598;28;20050;-81
2022/10/19 04:41:00;;;;;;;15.18;12.57;;;;;;;;;;4985425;28;20025;-84
2022/10/19 04:43:26;;;;;;;14.13;10.98;;;;;;;;;;4993669;28;20024;-84
2022/10/19 04:45:52;;;;;;;11.18;8.68;;;;;;;;;;5003488;28;20084;-82
2022/10/19 04:48:18;;;;;;;8.45;7.57;;;;;;;;;;5013080;28;20034;-83
2022/10/19 04:50:44;;;;;;;7.05;6.32;;;;;;;;;;4987385;28;20042;-84
2022/10/19 04:53:10;;;;;;;8.80;7.95;;;;;;;;;;5006317;28;20026;-83
2022/10/19 04:55:40;;;;;;;9.38;7.85;;;;;;;;;;5005003;28;20026;-84
2022/10/19 04:58:06;;;;;;;9.85;6.90;;;;;;;;;;5001689;28;20053;-84
2022/10/19 05:00:32;;;;;;;11.48;9.18;;;;;;;;;;4984760;28;20027;-83
2022/10/19 05:02:58;;;;;;;10.40;8.32;;;;;;;;;;5003396;28;20030;-82
2022/10/19 05:05:25;;;;;;;9.02;8.00;;;;;;;;;;5009036;28;20015;-82
2022/10/19 05:07:51;;;;;;;8.82;7.97;;;;;;;;;;5007853;28;20033;-83
2022/10/19 05:10:17;;;;;;;8.43;7.50;;;;;;;;;;5001970;28;20463;-83
2022/10/19 05:12:44;;;;;;;7.97;6.47;;;;;;;;;;4998624;28;20034;-83
2022/10/19 05:15:10;;;;;;;7.28;6.57;;;;;;;;;;5003001;28;20026;-83
2022/10/19 05:17:36;;;;;;;6.82;6.22;;;;;;;;;;5003109;28;20034;-83
2022/10/19 05:20:02;;;;;;;7.55;6.07;;;;;;;;;;5001659;28;20101;-83
2022/10/19 05:22:28;;;;;;;7.50;6.80;;;;;;;;;;5014029;28;20030;-83
2022/10/19 05:24:54;;;;;;;7.72;6.95;;;;;;;;;;5003159;28;20018;-83
2022/10/19 05:27:21;;;;;;;8.75;7.88;;;;;;;;;;5001461;28;20026;-83
2022/10/19 05:29:47;;;;;;;11.00;7.80;;;;;;;;;;4999974;28;20022;-83
2022/10/19 05:32:13;;;;;;;9.65;7.00;;;;;;;;;;5001466;28;20113;-83
2022/10/19 05:34:39;;;;;;;7.40;6.68;;;;;;;;;;5005858;28;20034;-82
2022/10/19 05:37:05;;;;;;;9.65;7.20;;;;;;;;;;5001214;28;20022;-83
2022/10/19 05:39:31;;;;;;;9.38;8.30;;;;;;;;;;5001899;28;20137;-83
2022/10/19 05:41:57;;;;;;;8.50;7.43;;;;;;;;;;5003833;28;20022;-83
2022/10/19 05:44:23;;;;;;;7.68;6.82;;;;;;;;;;5002230;28;20030;-83
2022/10/19 05:46:50;;;;;;;8.75;7.38;;;;;;;;;;5006627;28;20074;-83
2022/10/19 05:49:18;;;;;;;6.13;5.53;;;;;;;;;;4987128;28;20034;-82
2022/10/19 05:51:44;;;;;;;7.75;7.00;;;;;;;;;;5007793;28;20030;-83
2022/10/19 05:54:11;;;;;;;8.20;7.38;;;;;;;;;;5008856;28;20397;-80
2022/10/19 05:56:37;;;;;;;9.98;8.32;;;;;;;;;;5015373;28;20030;-82
2022/10/19 05:59:05;;;;;;;9.63;8.32;;;;;;;;;;5002074;28;20086;-84
2022/10/19 06:01:31;;;;;;;9.88;7.88;;;;;;;;;;5001930;28;20010;-84
2022/10/19 06:03:58;;;;;;;10.73;8.00;;;;;;;;;;4983637;28;20066;-84
2022/10/19 06:06:25;;;;;;;7.93;7.10;;;;;;;;;;5002366;28;20026;-84
2022/10/19 06:08:52;;;;;;;9.77;8.10;;;;;;;;;;5003116;28;20086;-83
2022/10/19 06:11:19;;;;;;;8.38;7.57;;;;;;;;;;5002233;28;20369;-83
2022/10/19 06:13:46;;;;;;;12.65;10.75;;;;;;;;;;4990994;28;20034;-82
2022/10/19 06:16:14;;;;;;;13.52;11.38;;;;;;;;;;4988857;28;20042;-82
2022/10/19 06:18:41;;;;;;;15.05;11.10;;;;;;;;;;5004716;28;20041;-81
2022/10/19 06:21:08;;;;;;;10.80;9.70;;;;;;;;;;4989352;28;20014;-82
2022/10/19 06:23:34;;;;;;;9.57;8.55;;;;;;;;;;4996070;28;20106;-84
2022/10/19 06:26:06;;;;;;;8.30;7.40;;;;;;;;;;5016864;28;20328;-83
2022/10/19 06:28:32;;;;;;;7.05;6.18;;;;;;;;;;5007476;28;20033;-83
2022/10/19 06:30:59;;;;;;;7.03;6.32;;;;;;;;;;5011227;28;20049;-85
2022/10/19 06:33:26;;;;;;;6.45;5.85;;;;;;;;;;5006399;28;20101;-83
2022/10/19 06:35:52;;;;;;;6.72;6.10;;;;;;;;;;5007544;28;20046;-82
2022/10/19 06:38:18;;;;;;;7.15;6.22;;;;;;;;;;5010794;28;20038;-81
2022/10/19 06:40:44;;;;;;;7.60;6.68;;;;;;;;;;5018164;28;20057;-80
2022/10/19 06:43:10;;;;;;;18.73;12.65;;;;;;;;;;5000743;28;20025;-82
2022/10/19 06:45:37;;;;;;;20.67;14.10;;;;;;;;;;5018521;28;20034;-82
2022/10/19 06:48:03;;;;;;;20.35;14.60;;;;;;;;;;5019489;28;20031;-83
2022/10/19 06:50:30;;;;;;;16.92;13.48;;;;;;;;;;5019203;28;20042;-83
2022/10/19 06:52:57;;;;;;;20.48;15.45;;;;;;;;;;5001298;28;20034;-83
2022/10/19 06:55:23;;;;;;;19.80;15.88;;;;;;;;;;4990078;28;20089;-83
2022/10/19 06:57:49;;;;;;;19.35;15.60;;;;;;;;;;4988873;28;20078;-83
2022/10/19 07:00:16;;;;;;;20.50;15.18;;;;;;;;;;5004525;28;20026;-83
2022/10/19 07:02:42;;;;;;;19.35;15.55;;;;;;;;;;5009409;28;20026;-82
2022/10/19 07:05:09;;;;;;;16.85;14.00;;;;;;;;;;5010163;28;20023;-82
2022/10/19 07:07:35;;;;;;;18.83;14.70;;;;;;;;;;5008977;28;20022;-82
2022/10/19 07:10:01;;;;;;;15.63;12.73;;;;;;;;;;5008801;28;20027;-83
2022/10/19 07:12:27;;;;;;;15.30;12.82;;;;;;;;;;5010452;28;20030;-83
2022/10/19 07:14:54;;;;;;;19.02;15.15;;;;;;;;;;4998746;28;20030;-83
2022/10/19 07:17:20;;;;;;;23.50;16.23;;;;;;;;;;5008835;28;20040;-84
2022/10/19 07:19:46;;;;;;;22.58;16.30;;;;;;;;;;5011637;28;20026;-83
2022/10/19 07:22:12;;;;;;;25.92;16.63;;;;;;;;;;5005498;28;20027;-84
2022/10/19 07:24:39;;;;;;;20.65;16.60;;;;;;;;;;4989745;28;20026;-83
2022/10/19 07:27:05;;;;;;;19.27;15.18;;;;;;;;;;4989811;28;20040;-83
2022/10/19 07:29:31;;;;;;;23.50;17.98;;;;;;;;;;4989031;28;20050;-84
2022/10/19 07:31:57;;;;;;;22.58;17.50;;;;;;;;;;4990749;28;20134;-82
2022/10/19 07:34:23;;;;;;;17.08;14.40;;;;;;;;;;4974257;28;20030;-82
2022/10/19 07:36:50;;;;;;;20.48;15.73;;;;;;;;;;4990493;28;20030;-84
2022/10/19 07:39:16;;;;;;;19.60;15.38;;;;;;;;;;4973834;28;20579;-81
2022/10/19 07:41:43;;;;;;;20.02;15.48;;;;;;;;;;5015387;28;20019;-84
2022/10/19 07:44:09;;;;;;;20.42;16.00;;;;;;;;;;5010362;28;20036;-84
2022/10/19 07:46:36;;;;;;;22.55;17.33;;;;;;;;;;5010176;28;20031;-82
2022/10/19 07:49:03;;;;;;;20.98;17.33;;;;;;;;;;5010977;28;20023;-83
2022/10/19 07:51:30;;;;;;;25.20;18.65;;;;;;;;;;5006432;28;20030;-83
2022/10/19 07:53:57;;;;;;;24.52;18.73;;;;;;;;;;5011621;28;20084;-82
2022/10/19 07:56:24;;;;;;;25.05;17.73;;;;;;;;;;5012070;28;20281;-83
2022/10/19 07:58:51;;;;;;;22.58;17.67;;;;;;;;;;4994828;28;20045;-84
2022/10/19 08:01:18;;;;;;;25.92;20.42;;;;;;;;;;5016166;28;20019;-82
2022/10/19 08:03:45;;;;;;;29.23;20.10;;;;;;;;;;4997553;28;20030;-81
2022/10/19 08:06:12;;;;;;;21.55;17.45;;;;;;;;;;5010651;28;20033;-82
2022/10/19 08:08:40;;;;;;;25.98;18.83;;;;;;;;;;5010695;28;20026;-82
2022/10/19 08:11:07;;;;;;;28.10;21.38;;;;;;;;;;5010666;28;20078;-85
2022/10/19 08:13:38;;;;;;;29.33;22.63;;;;;;;;;;4989704;28;20044;-83
2022/10/19 08:16:04;;;;;;;27.60;20.10;;;;;;;;;;4990234;28;20034;-83
2022/10/19 08:18:30;;;;;;;27.38;21.08;;;;;;;;;;4992949;28;20045;-83
2022/10/19 08:21:02;;;;;;;28.35;20.27;;;;;;;;;;5009601;28;20081;-84
2022/10/19 08:23:28;;;;;;;29.30;20.50;;;;;;;;;;5011766;28;20022;-82
2022/10/19 08:25:58;;;;;;;25.08;18.83;;;;;;;;;;5018017;28;20038;-80
2022/10/19 08:28:24;;;;;;;20.10;15.75;;;;;;;;;;4996208;28;20419;-82
2022/10/19 08:30:50;;;;;;;24.00;17.67;;;;;;;;;;5009649;28;20031;-84
2022/10/19 08:33:17;;;;;;;29.98;21.08;;;;;;;;;;5010402;28;20029;-82
2022/10/19 08:35:43;;;;;;;39.80;25.42;;;;;;;;;;5010072;28;20552;-82
2022/10/19 08:38:09;;;;;;;38.63;25.60;;;;;;;;;;4992801;28;20030;-82
2022/10/19 08:40:35;;;;;;;40.72;25.13;;;;;;;;;;5005069;28;20038;-81
2022/10/19 08:43:10;;;;;;;27.65;19.80;;;;;;;;;;4996258;28;20018;-82
2022/10/19 08:45:36;;;;;;;30.27;21.33;;;;;;;;;;5005398;28;20070;-83
2022/10/19 08:48:13;;;;;;;37.45;25.42;;;;;;;;;;4978554;28;20093;-82
2022/10/19 08:50:42;;;;;;;39.53;24.98;;;;;;;;;;4973013;28;20031;-82
2022/10/19 08:53:12;;;;;;;39.15;25.15;;;;;;;;;;4989852;28;20030;-83
2022/10/19 08:55:43;;;;;;;33.10;24.88;;;;;;;;;;4974158;28;20429;-82
2022/10/19 08:58:19;;;;;;;42.83;26.15;;;;;;;;;;4993328;28;20031;-81
2022/10/19 09:01:04;;;;;;;37.92;24.67;;;;;;;;;;4995341;28;20022;-81
2022/10/19 09:03:34;;;;;;;34.08;22.73;;;;;;;;;;4982940;28;20788;-81
2022/10/19 09:06:23;;;;;;;30.85;23.38;;;;;;;;;;5018044;28;20022;-82
2022/10/19 09:08:50;;;;;;;34.13;25.02;;;;;;;;;;5014745;28;20042;-82
2022/10/19 09:11:20;;;;;;;33.63;22.60;;;;;;;;;;5014459;28;20082;-80
2022/10/19 09:13:48;;;;;;;28.23;20.90;;;;;;;;;;5010477;28;20018;-81
2022/10/19 09:16:15;;;;;;;34.00;24.00;;;;;;;;;;4973658;28;20050;-81
2022/10/19 09:18:42;;;;;;;28.92;22.08;;;;;;;;;;4975135;28;20129;-81
2022/10/19 09:21:14;;;;;;;28.00;21.23;;;;;;;;;;4992375;28;20022;-83
2022/10/19 09:23:40;;;;;;;;;;;;;;;;;;4990954;28;20038;-83
2022/10/19 09:26:12;;;;;;;33.05;20.95;;;;;;;;;;5007914;28;20378;-83
2022/10/19 09:28:58;;;;;;;25.70;19.23;;;;;;;;;;4988520;28;20064;-83
2022/10/19 09:31:38;;;;;;;26.98;20.55;;;;;;;;;;5004195;28;20058;-82
2022/10/19 09:34:12;;;;;;;27.85;19.27;;;;;;;;;;4988907;28;20034;-81
2022/10/19 09:36:42;;;;;;;25.92;20.05;;;;;;;;;;5005063;28;20034;-82
2022/10/19 09:39:12;;;;;;;27.70;18.98;;;;;;;;;;5004596;28;20037;-81
2022/10/19 09:41:46;;;;;;;20.95;16.88;;;;;;;;;;5002612;28;20018;-81
2022/10/19 09:44:12;;;;;;;21.70;16.77;;;;;;;;;;5005573;28;20019;-81
2022/10/19 09:46:50;;;;;;;19.58;15.80;;;;;;;;;;4986722;28;20082;-81
2022/10/19 09:49:17;;;;;;;21.55;15.75;;;;;;;;;;4967346;28;20025;-83
2022/10/19 09:51:51;;;;;;;16.88;14.45;;;;;;;;;;4968534;28;20531;-81
2022/10/19 09:54:36;;;;;;;14.38;11.60;;;;;;;;;;4988420;28;20086;-82
2022/10/19 09:57:03;;;;;;;16.73;13.50;;;;;;;;;;4994108;28;20035;-82
2022/10/19 09:59:36;;;;;;;19.98;13.43;;;;;;;;;;4983263;28;20065;-82
2022/10/19 10:02:14;;;;;;;20.90;14.23;;;;;;;;;;5000840;28;20026;-80
2022/10/19 10:04:40;;;;;;;17.65;13.68;;;;;;;;;;5001443;28;20015;-80
2022/10/19 10:07:13;;;;;;;17.25;13.02;;;;;;;;;;4991929;28;20025;-82
2022/10/19 10:09:40;;;;;;;13.85;11.40;;;;;;;;;;4984466;28;20038;-79
2022/10/19 10:12:07;;;;;;;14.30;11.68;;;;;;;;;;5002765;28;20035;-80
2022/10/19 10:14:38;;;;;;;16.90;12.55;;;;;;;;;;4986909;28;20031;-81
2022/10/19 10:17:28;;;;;;;12.15;9.75;;;;;;;;;;5003346;28;20026;-83
2022/10/19 10:19:58;;;;;;;14.60;10.00;;;;;;;;;;5003203;28;20018;-79
2022/10/19 10:22:35;;;;;;;13.57;10.07;;;;;;;;;;5002067;28;20032;-82
2022/10/19 10:25:02;;;;;;;14.45;12.15;;;;;;;;;;5006368;28;20034;-82
2022/10/19 10:27:32;;;;;;;20.05;14.38;;;;;;;;;;5011579;28;20019;-80
2022/10/19 10:29:59;;;;;;;14.93;12.20;;;;;;;;;;4981852;28;20075;-82
2022/10/19 10:32:26;;;;;;;16.40;11.75;;;;;;;;;;5000152;28;20034;-81
2022/10/19 10:34:55;;;;;;;15.50;12.13;;;;;;;;;;4995059;28;20023;-83
2022/10/19 10:37:23;;;;;;;16.80;14.07;;;;;;;;;;4999284;28;20046;-81
2022/10/19 10:39:54;;;;;;;19.52;16.02;;;;;;;;;;4986765;28;20034;-82
2022/10/19 10:42:24;;;;;;;20.25;15.65;;;;;;;;;;4995356;28;20070;-82
2022/10/19 10:44:52;;;;;;;20.58;15.98;;;;;;;;;;5001578;28;20486;-83
2022/10/19 10:47:21;;;;;;;18.25;15.30;;;;;;;;;;5000878;28;20030;-82
2022/10/19 10:50:02;;;;;;;18.17;13.52;;;;;;;;;;5004675;28;20018;-82
2022/10/19 10:52:30;;;;;;;21.70;14.23;;;;;;;;;;5003773;28;20058;-82
2022/10/19 10:55:02;;;;;;;19.63;14.18;;;;;;;;;;4993728;28;20038;-79
2022/10/19 10:57:34;;;;;;;13.65;11.23;;;;;;;;;;4994855;28;20044;-82
2022/10/19 11:00:17;;;;;;;19.38;13.70;;;;;;;;;;5011181;28;20023;-81
2022/10/19 11:03:02;;;;;;;14.88;12.30;;;;;;;;;;5027292;28;20037;-80
2022/10/19 11:05:31;;;;;;;14.43;12.13;;;;;;;;;;5012559;28;20027;-83
2022/10/19 11:08:03;;;;;;;14.43;12.07;;;;;;;;;;4997683;28;20038;-81
2022/10/19 11:10:29;;;;;;;;;;;;;;;;;;5013791;28;20026;-82
2022/10/19 11:13:14;;;;;;;15.48;12.30;;;;;;;;;;5013666;28;19936;-82
2022/10/19 11:15:54;;;;;;;13.70;11.43;;;;;;;;;;5011269;28;20050;-81
2022/10/19 11:18:22;;;;;;;13.50;11.50;;;;;;;;;;5009338;28;20036;-83
2022/10/19 11:20:55;;;;;;;16.48;12.77;;;;;;;;;;5012014;28;20483;-83
2022/10/19 11:23:30;;;;;;;13.40;11.23;;;;;;;;;;5012158;28;20105;-82
2022/10/19 11:26:10;;;;;;;14.50;11.13;;;;;;;;;;4997545;28;20030;-81
2022/10/19 11:29:06;;;;;;;13.23;10.57;;;;;;;;;;4980387;28;20030;-80
2022/10/19 11:31:32;;;;;;;14.20;11.85;;;;;;;;;;4997869;28;20078;-83
2022/10/19 11:33:59;;;;;;;14.65;12.10;;;;;;;;;;5011143;28;20023;-82
2022/10/19 11:36:28;;;;;;;13.65;11.18;;;;;;;;;;4985272;28;20045;-82
2022/10/19 11:39:13;;;;;;;14.35;12.10;;;;;;;;;;5013747;28;20038;-81
2022/10/19 11:42:03;;;;;;;15.25;12.60;;;;;;;;;;4998156;28;20015;-82
2022/10/19 11:47:42;;;;;;;16.52;12.15;;;;;;;;;;4986441;28;20557;-84
2022/10/19 11:50:47;;;;;;;13.60;12.20;;;;;;;;;;4981585;28;20038;-84
2022/10/19 11:56:41;;;;;;;9.88;8.43;;;;;;;;;;4975004;28;20086;-85
2022/10/19 11:59:23;;;;;;;10.30;8.45;;;;;;;;;;4965719;29;20090;-83
2022/10/19 12:11:24;;;;;;;8.05;7.13;;;;;;;;;;4924985;29;20035;-84
2022/10/19 12:13:59;;;;;;;7.78;7.07;;;;;;;;;;4945698;29;20032;-84
2022/10/19 12:16:48;;;;;;;6.75;5.43;;;;;;;;;;4944104;29;20051;-83
2022/10/19 12:22:20;;;;;;;8.20;7.38;;;;;;;;;;4949253;29;20041;-83
2022/10/19 12:25:09;;;;;;;7.82;6.07;;;;;;;;;;4961866;29;20019;-82
2022/10/19 12:31:28;;;;;;;6.38;5.78;;;;;;;;;;4971225;28;20028;-83
2022/10/19 12:34:12;;;;;;;6.07;5.55;;;;;;;;;;4948134;29;20035;-84
2022/10/19 12:36:58;;;;;;;5.95;5.00;;;;;;;;;;4949903;29;20102;-84
2022/10/19 12:39:52;;;;;;;4.55;4.03;;;;;;;;;;4949079;29;20058;-83
2022/10/19 12:42:37;;;;;;;6.50;5.30;;;;;;;;;;4943614;29;20547;-83
2022/10/19 12:45:06;;;;;;;6.57;4.95;;;;;;;;;;4972145;28;20026;-84
2022/10/19 12:47:34;;;;;;;6.88;5.88;;;;;;;;;;4957759;28;20039;-83
2022/10/19 12:50:01;;;;;;;4.55;4.15;;;;;;;;;;4983977;28;20022;-85
2022/10/19 12:52:51;;;;;;;4.80;4.40;;;;;;;;;;4986485;28;20019;-83
2022/10/19 12:55:23;;;;;;;7.38;5.95;;;;;;;;;;4960715;29;20034;-83
2022/10/19 12:57:59;;;;;;;7.82;6.30;;;;;;;;;;4950844;28;20136;-84
2022/10/19 13:00:26;;;;;;;6.22;5.47;;;;;;;;;;4962487;28;20060;-84
2022/10/19 13:03:18;;;;;;;7.80;4.30;;;;;;;;;;4945683;29;20035;-84
2022/10/19 13:05:55;;;;;;;5.60;5.10;;;;;;;;;;4954165;29;20071;-84
2022/10/19 13:08:30;;;;;;;5.75;4.80;;;;;;;;;;4995480;28;20030;-85
2022/10/19 13:11:13;;;;;;;7.00;6.30;;;;;;;;;;4966119;28;20053;-84
2022/10/19 13:13:51;;;;;;;6.75;6.15;;;;;;;;;;4981889;28;20460;-84
2022/10/19 13:16:29;;;;;;;6.22;5.55;;;;;;;;;;4994097;28;20026;-82
2022/10/19 13:18:59;;;;;;;7.80;7.00;;;;;;;;;;4974762;28;20097;-83
2022/10/19 13:21:43;;;;;;;8.43;7.63;;;;;;;;;;4984766;28;20061;-84
2022/10/19 13:24:24;;;;;;;8.43;6.68;;;;;;;;;;4968663;28;20388;-84
2022/10/19 13:27:03;;;;;;;5.73;5.13;;;;;;;;;;4986707;28;20031;-84
2022/10/19 13:29:40;;;;;;;6.03;5.53;;;;;;;;;;4982094;28;20273;-84
2022/10/19 13:32:25;;;;;;;8.40;6.53;;;;;;;;;;4981238;28;20023;-83
2022/10/19 13:34:51;;;;;;;6.18;5.55;;;;;;;;;;4982075;28;20026;-85
2022/10/19 13:37:55;;;;;;;7.07;6.32;;;;;;;;;;4982302;28;20300;-83
2022/10/19 13:40:47;;;;;;;5.25;4.75;;;;;;;;;;4904343;29;20122;-84
2022/10/19 13:43:13;;;;;;;;;;;;;;;;;;4904491;29;20028;-84
2022/10/19 13:45:40;;;;;;;5.45;4.45;;;;;;;;;;4941537;28;19910;-85
2022/10/19 13:48:12;;;;;;;5.07;4.43;;;;;;;;;;4981410;28;20019;-82
2022/10/19 13:50:58;;;;;;;4.53;4.00;;;;;;;;;;4978854;28;20018;-83
2022/10/19 13:53:34;;;;;;;4.75;4.25;;;;;;;;;;4964254;28;20019;-83
2022/10/19 13:56:18;;;;;;;4.03;3.63;;;;;;;;;;4979307;28;20027;-83
2022/10/19 13:59:22;;;;;;;3.17;2.97;;;;;;;;;;4964862;28;20043;-83
2022/10/19 14:02:08;;;;;;;3.75;3.45;;;;;;;;;;4897099;28;20120;-84
2022/10/19 14:04:48;;;;;;;2.80;2.50;;;;;;;;;;4958960;28;20054;-82
2022/10/19 14:07:40;;;;;;;2.72;2.53;;;;;;;;;;4980401;28;20034;-84
2022/10/19 14:10:17;;;;;;;3.17;2.95;;;;;;;;;;4952124;28;20098;-84
2022/10/19 14:12:45;;;;;;;2.80;2.33;;;;;;;;;;4982372;28;20115;-84
2022/10/19 14:15:30;;;;;;;3.10;2.35;;;;;;;;;;4976947;28;20389;-84
2022/10/19 14:17:58;;;;;;;2.95;2.70;;;;;;;;;;4976669;28;20031;-83
2022/10/19 14:20:24;;;;;;;3.40;2.70;;;;;;;;;;4963921;28;20122;-83
2022/10/19 14:22:50;;;;;;;3.55;2.85;;;;;;;;;;4964298;28;20104;-82
2022/10/19 14:25:18;;;;;;;3.60;2.58;;;;;;;;;;4981713;28;20090;-82
2022/10/19 14:31:21;;;;;;;;;;;;;;;;;;;;;
2022/10/19 14:34:17;;;;;;;2.95;2.53;;;;;;;;;;4981925;28;20067;-83
2022/10/19 14:36:56;;;;;;;10.55;4.10;;;;;;;;;;4984233;28;20039;-82
2022/10/19 14:40:02;;;;;;;7.55;5.18;;;;;;;;;;4944815;28;20074;-82
2022/10/19 14:46:12;;;;;;;4.03;3.65;;;;;;;;;;4989679;28;20037;-82
2022/10/19 14:48:44;;;;;;;5.20;4.43;;;;;;;;;;4983272;28;20026;-83
2022/10/19 14:51:32;;;;;;;5.95;4.75;;;;;;;;;;4987752;28;20042;-84
2022/10/19 14:57:12;;;;;;;5.50;4.97;;;;;;;;;;4970186;28;20065;-84
2022/10/19 15:00:36;;;;;;;;;;;;;;;;;;;;;
2022/10/19 15:03:17;;;;;;;5.97;4.85;;;;;;;;;;4899068;29;20087;-84
2022/10/19 15:06:41;;;;;;;7.78;5.57;;;;;;;;;;4918664;28;20039;-83
2022/10/19 15:09:35;;;;;;;6.25;4.53;;;;;;;;;;4946423;29;20087;-84
2022/10/19 15:12:23;;;;;;;4.55;4.10;;;;;;;;;;4930649;29;20100;-84
2022/10/19 15:18:29;;;;;;;7.97;5.72;;;;;;;;;;4944803;29;20512;-83
2022/10/19 15:21:22;;;;;;;7.57;5.72;;;;;;;;;;4919095;29;20036;-83
2022/10/19 15:33:20;;;;;;;7.25;4.70;;;;;;;;;;4945410;29;20079;-84
2022/10/19 15:42:24;;;;;;;5.97;4.53;;;;;;;;;;4962920;29;20054;-84
2022/10/19 15:57:49;;;;;;;3.10;2.80;;;;;;;;;;4936752;29;20091;-85
2022/10/19 16:00:19;;;;;;;2.72;2.53;;;;;;;;;;4947604;29;20107;-83
2022/10/19 16:02:45;;;;;;;2.72;2.53;;;;;;;;;;4979708;28;20030;-83